createdAt,value
2023-02-13T00:00:50.106Z,53.96
2023-02-13T00:04:00.189Z,53.81
2023-02-13T00:07:02.636Z,53.91
2023-02-13T00:10:05.380Z,53.91
2023-02-13T00:13:07.760Z,53.71
2023-02-13T00:16:10.382Z,53.84
2023-02-13T00:19:12.734Z,53.66
2023-02-13T00:22:16.696Z,53.58
2023-02-13T00:25:19.721Z,53.59
2023-02-13T00:28:21.804Z,53.68
2023-02-13T00:31:24.836Z,53.62
2023-02-13T00:34:27.804Z,53.63
2023-02-13T00:37:31.049Z,53.72
2023-02-13T00:40:33.355Z,53.76
2023-02-13T00:43:36.662Z,53.88
2023-02-13T00:46:38.986Z,53.91
2023-02-13T00:49:41.858Z,53.89
2023-02-13T00:52:43.916Z,53.98
2023-02-13T00:55:48.554Z,53.98
2023-02-13T00:58:50.447Z,54.09
2023-02-13T01:01:53.302Z,54.21
2023-02-13T01:04:55.337Z,54.07
2023-02-13T01:07:58.200Z,54.18
2023-02-13T01:11:00.490Z,54.13
2023-02-13T01:14:03.377Z,54.20
2023-02-13T01:17:05.485Z,54.21
2023-02-13T01:20:09.666Z,54.15
2023-02-13T01:23:12.602Z,54.15
2023-02-13T01:26:23.700Z,54.09
2023-02-13T01:29:25.955Z,54.10
2023-02-13T01:32:28.849Z,54.00
2023-02-13T01:35:30.874Z,54.10
2023-02-13T01:38:33.510Z,54.31
2023-02-13T01:41:35.797Z,54.05
2023-02-13T01:45:06.296Z,54.10
2023-02-13T01:48:19.899Z,54.18
2023-02-13T01:51:27.525Z,54.17
2023-02-13T01:54:33.627Z,54.16
2023-02-13T01:57:40.437Z,54.17
2023-02-13T02:00:44.205Z,54.21
2023-02-13T02:03:53.880Z,54.39
2023-02-13T02:07:05.280Z,54.39
2023-02-13T02:10:14.766Z,54.35
2023-02-13T02:13:20.148Z,54.34
2023-02-13T02:16:22.509Z,54.46
2023-02-13T02:19:48.792Z,54.49
2023-02-13T02:23:32.809Z,54.38
2023-02-13T02:26:56.360Z,54.39
2023-02-13T02:30:30.892Z,54.46
2023-02-13T02:34:03.242Z,54.41
2023-02-13T02:37:46.833Z,54.58
2023-02-13T02:41:40.934Z,54.62
2023-02-13T02:44:56.855Z,54.55
2023-02-13T02:48:36.761Z,54.55
2023-02-13T02:51:39.407Z,54.60
2023-02-13T02:55:06.841Z,54.68
2023-02-13T02:58:43.336Z,54.72
2023-02-13T03:02:05.081Z,54.73
2023-02-13T03:05:37.842Z,54.74
2023-02-13T03:09:10.150Z,54.79
2023-02-13T03:12:36.264Z,54.86
2023-02-13T03:16:02.799Z,54.82
2023-02-13T03:19:24.179Z,54.95
2023-02-13T03:22:44.113Z,54.95
2023-02-13T03:26:07.167Z,54.87
2023-02-13T03:29:37.381Z,54.97
2023-02-13T03:32:45.646Z,55.09
2023-02-13T03:36:08.685Z,55.07
2023-02-13T03:39:23.383Z,55.01
2023-02-13T03:42:37.128Z,55.18
2023-02-13T03:45:57.586Z,55.09
2023-02-13T03:49:21.607Z,55.09
2023-02-13T03:52:29.506Z,55.07
2023-02-13T03:55:57.809Z,55.15
2023-02-13T03:59:18.352Z,55.23
2023-02-13T04:02:25.666Z,55.24
2023-02-13T04:05:31.043Z,55.14
2023-02-13T04:08:33.425Z,55.28
2023-02-13T04:11:41.375Z,55.28
2023-02-13T04:14:50.129Z,55.29
2023-02-13T04:17:58.273Z,55.30
2023-02-13T04:21:07.929Z,55.40
2023-02-13T04:24:10.596Z,55.29
2023-02-13T04:27:15.592Z,55.24
2023-02-13T04:30:17.976Z,55.24
2023-02-13T04:33:20.121Z,55.18
2023-02-13T04:36:22.729Z,55.29
2023-02-13T04:39:24.731Z,55.25
2023-02-13T04:42:27.820Z,55.29
2023-02-13T04:45:30.202Z,55.33
2023-02-13T04:48:32.744Z,55.31
2023-02-13T04:51:34.550Z,55.28
2023-02-13T04:54:36.847Z,55.32
2023-02-13T04:57:38.799Z,55.44
2023-02-13T05:00:40.999Z,55.39
2023-02-13T05:03:43.408Z,55.45
2023-02-13T05:06:45.787Z,55.41
2023-02-13T05:09:48.113Z,55.42
2023-02-13T05:12:50.451Z,55.39
2023-02-13T05:15:52.887Z,55.30
2023-02-13T05:18:55.852Z,55.37
2023-02-13T05:22:17.348Z,55.40
2023-02-13T05:25:19.729Z,55.38
2023-02-13T05:28:40.144Z,55.34
2023-02-13T05:31:42.980Z,55.33
2023-02-13T05:34:44.952Z,55.30
2023-02-13T05:37:47.972Z,55.36
2023-02-13T05:40:49.951Z,55.27
2023-02-13T05:43:52.696Z,55.38
2023-02-13T05:46:55.142Z,55.39
2023-02-13T05:49:58.000Z,55.42
2023-02-13T05:52:59.981Z,55.54
2023-02-13T05:56:05.258Z,55.55
2023-02-13T05:59:08.416Z,55.52
2023-02-13T06:02:11.155Z,55.60
2023-02-13T06:05:13.058Z,55.60
2023-02-13T06:08:15.680Z,55.53
2023-02-13T06:11:18.337Z,55.48
2023-02-13T06:14:20.868Z,55.59
2023-02-13T06:17:23.151Z,55.63
2023-02-13T06:20:25.726Z,55.61
2023-02-13T06:23:28.427Z,55.50
2023-02-13T06:26:30.888Z,55.61
2023-02-13T06:29:33.145Z,55.61
2023-02-13T06:32:35.644Z,55.69
2023-02-13T06:35:38.132Z,55.73
2023-02-13T06:38:40.586Z,55.69
2023-02-13T06:41:42.712Z,55.73
2023-02-13T06:44:45.108Z,55.72
2023-02-13T06:47:48.983Z,55.62
2023-02-13T06:50:54.748Z,55.70
2023-02-13T06:53:57.008Z,55.86
2023-02-13T06:57:00.293Z,55.62
2023-02-13T07:00:06.247Z,55.80
2023-02-13T07:03:11.414Z,55.74
2023-02-13T07:06:18.295Z,55.88
2023-02-13T07:09:20.577Z,55.91
2023-02-13T07:12:22.894Z,55.99
2023-02-13T07:15:25.702Z,55.89
2023-02-13T07:18:27.835Z,55.93
2023-02-13T07:21:30.446Z,55.95
2023-02-13T07:24:35.586Z,55.98
2023-02-13T07:27:38.021Z,56.18
2023-02-13T07:30:40.224Z,57.25
2023-02-13T07:33:42.700Z,56.63
2023-02-13T07:36:44.778Z,56.72
2023-02-13T07:39:47.694Z,56.79
2023-02-13T07:42:49.621Z,56.79
2023-02-13T07:45:55.954Z,56.67
2023-02-13T07:48:58.283Z,56.64
2023-02-13T07:52:00.624Z,56.51
2023-02-13T07:55:02.622Z,56.57
2023-02-13T07:58:05.650Z,56.97
2023-02-13T08:01:13.040Z,56.82
2023-02-13T08:04:15.704Z,56.72
2023-02-13T08:07:18.474Z,56.35
2023-02-13T08:10:40.081Z,56.11
2023-02-13T08:13:44.780Z,56.09
2023-02-13T08:16:47.696Z,56.08
2023-02-13T08:19:50.015Z,56.15
2023-02-13T08:22:52.377Z,56.15
2023-02-13T08:25:55.644Z,56.08
2023-02-13T08:28:58.608Z,56.17
2023-02-13T08:32:00.823Z,56.16
2023-02-13T08:35:03.437Z,56.05
2023-02-13T08:38:05.405Z,56.10
2023-02-13T08:41:07.947Z,56.12
2023-02-13T08:44:11.259Z,56.30
2023-02-13T08:47:13.611Z,56.29
2023-02-13T08:50:17.126Z,56.20
2023-02-13T08:53:20.414Z,56.16
2023-02-13T08:56:22.477Z,56.11
2023-02-13T08:59:25.151Z,56.09
2023-02-13T09:02:27.201Z,56.23
2023-02-13T09:05:32.087Z,56.00
2023-02-13T09:08:35.929Z,55.97
2023-02-13T09:11:38.462Z,56.00
2023-02-13T09:14:41.271Z,55.93
2023-02-13T09:17:43.618Z,56.04
2023-02-13T09:20:45.981Z,56.00
2023-02-13T09:23:48.422Z,56.21
2023-02-13T09:26:50.616Z,56.01
2023-02-13T09:29:53.501Z,56.00
2023-02-13T09:32:55.650Z,55.93
2023-02-13T09:35:58.402Z,55.88
2023-02-13T09:39:01.131Z,55.84
2023-02-13T09:42:15.824Z,55.99
2023-02-13T09:45:21.622Z,56.08
2023-02-13T09:48:45.896Z,55.77
2023-02-13T09:51:54.356Z,55.53
2023-02-13T09:54:56.693Z,55.46
2023-02-13T09:58:16.483Z,55.04
2023-02-13T10:01:26.988Z,54.65
2023-02-13T10:04:51.512Z,54.15
2023-02-13T10:08:30.691Z,53.96
2023-02-13T10:11:35.443Z,53.88
2023-02-13T10:15:04.574Z,53.85
2023-02-13T10:18:15.577Z,53.70
2023-02-13T10:21:24.768Z,53.50
2023-02-13T10:24:38.623Z,53.43
2023-02-13T10:27:50.070Z,53.31
2023-02-13T10:30:58.655Z,53.03
2023-02-13T10:34:04.071Z,52.72
2023-02-13T10:37:14.014Z,52.73
2023-02-13T10:40:17.408Z,52.84
2023-02-13T10:43:21.641Z,52.54
2023-02-13T10:46:44.153Z,52.40
2023-02-13T10:50:09.564Z,52.30
2023-02-13T10:53:31.106Z,52.16
2023-02-13T10:56:48.537Z,52.18
2023-02-13T11:00:00.021Z,52.13
2023-02-13T11:03:02.766Z,52.12
2023-02-13T11:06:12.847Z,51.89
2023-02-13T11:09:15.094Z,51.87
2023-02-13T11:12:25.937Z,51.75
2023-02-13T11:15:33.183Z,51.95
2023-02-13T11:18:41.684Z,51.83
2023-02-13T11:21:44.123Z,51.78
2023-02-13T11:24:56.607Z,51.81
2023-02-13T11:28:10.670Z,51.79
2023-02-13T11:31:22.670Z,51.82
2023-02-13T11:34:27.501Z,51.75
2023-02-13T11:37:31.795Z,51.70
2023-02-13T11:40:34.321Z,51.67
2023-02-13T11:44:01.867Z,51.62
2023-02-13T11:47:04.725Z,51.56
2023-02-13T11:50:21.789Z,51.56
2023-02-13T11:53:27.521Z,51.60
2023-02-13T11:57:03.375Z,51.53
2023-02-13T12:00:42.089Z,51.51
2023-02-13T12:03:44.740Z,51.51
2023-02-13T12:07:15.155Z,51.52
2023-02-13T12:10:33.429Z,51.52
2023-02-13T12:13:39.239Z,51.56
2023-02-13T12:16:50.949Z,51.60
2023-02-13T12:19:55.777Z,51.73
2023-02-13T12:23:18.572Z,51.83
2023-02-13T12:26:43.081Z,51.92
2023-02-13T12:29:58.383Z,52.10
2023-02-13T12:33:28.124Z,52.10
2023-02-13T12:36:42.979Z,52.19
2023-02-13T12:40:24.908Z,52.13
2023-02-13T12:43:51.603Z,52.23
2023-02-13T12:47:21.555Z,52.27
2023-02-13T12:50:30.316Z,52.32
2023-02-13T12:53:48.198Z,52.38
2023-02-13T12:57:32.348Z,52.38
2023-02-13T13:00:53.306Z,52.48
2023-02-13T13:04:09.576Z,53.22
2023-02-13T13:07:43.226Z,53.09
2023-02-13T13:11:04.142Z,52.72
2023-02-13T13:14:09.383Z,52.35
2023-02-13T13:17:20.658Z,52.33
2023-02-13T13:20:37.977Z,52.23
2023-02-13T13:24:01.306Z,52.12
2023-02-13T13:27:04.897Z,52.07
2023-02-13T13:30:22.827Z,52.07
2023-02-13T13:33:28.809Z,51.83
2023-02-13T13:36:55.347Z,51.69
2023-02-13T13:40:14.857Z,51.47
2023-02-13T13:43:23.542Z,51.51
2023-02-13T13:46:28.867Z,51.47
2023-02-13T13:49:55.731Z,51.47
2023-02-13T13:53:09.193Z,51.31
2023-02-13T13:56:12.028Z,51.46
2023-02-13T13:59:19.358Z,51.44
2023-02-13T14:02:22.782Z,51.29
2023-02-13T14:05:32.897Z,51.51
2023-02-13T14:08:41.374Z,51.35
2023-02-13T14:11:47.312Z,51.30
2023-02-13T14:14:51.332Z,51.28
2023-02-13T14:17:54.653Z,51.17
2023-02-13T14:21:01.283Z,51.13
2023-02-13T14:24:12.216Z,51.07
2023-02-13T14:27:25.596Z,51.06
2023-02-13T14:30:37.169Z,50.99
2023-02-13T14:33:40.568Z,50.98
2023-02-13T14:36:48.753Z,50.95
2023-02-13T14:40:27.565Z,50.94
2023-02-13T14:43:29.897Z,50.93
2023-02-13T14:46:41.455Z,50.88
2023-02-13T14:49:44.728Z,50.88
2023-02-13T14:52:48.655Z,50.87
2023-02-13T14:56:05.621Z,50.74
2023-02-13T14:59:16.153Z,50.65
2023-02-13T15:02:32.082Z,50.52
2023-02-13T15:05:36.068Z,50.42
2023-02-13T15:08:48.458Z,50.26
2023-02-13T15:11:51.826Z,50.22
2023-02-13T15:14:54.415Z,50.19
2023-02-13T15:18:03.200Z,50.14
2023-02-13T15:21:05.603Z,50.82
2023-02-13T15:24:14.236Z,50.74
2023-02-13T15:27:21.216Z,50.81
2023-02-13T15:30:29.534Z,50.78
2023-02-13T15:34:20.798Z,50.85
2023-02-13T15:37:27.655Z,50.90
2023-02-13T15:40:45.196Z,50.80
2023-02-13T15:43:51.992Z,51.09
2023-02-13T15:46:55.630Z,51.13
2023-02-13T15:49:58.180Z,51.18
2023-02-13T15:53:04.843Z,51.24
2023-02-13T15:56:14.216Z,51.17
2023-02-13T15:59:31.272Z,51.38
2023-02-13T16:02:48.256Z,51.53
2023-02-13T16:05:50.534Z,51.56
2023-02-13T16:08:56.057Z,51.57
2023-02-13T16:12:08.055Z,51.56
2023-02-13T16:15:17.658Z,51.62
2023-02-13T16:18:21.497Z,51.70
2023-02-13T16:21:27.082Z,51.87
2023-02-13T16:24:29.766Z,51.84
2023-02-13T16:27:34.882Z,51.97
2023-02-13T16:30:45.497Z,51.74
2023-02-13T16:33:48.335Z,51.79
2023-02-13T16:36:51.206Z,51.54
2023-02-13T16:39:53.755Z,51.58
2023-02-13T16:43:34.099Z,51.68
2023-02-13T16:46:53.989Z,51.67
2023-02-13T16:49:57.376Z,51.75
2023-02-13T16:53:03.416Z,51.72
2023-02-13T16:56:11.843Z,51.50
2023-02-13T16:59:35.357Z,52.02
2023-02-13T17:02:40.925Z,52.05
2023-02-13T17:05:43.299Z,52.06
2023-02-13T17:08:45.938Z,51.99
2023-02-13T17:11:51.678Z,51.93
2023-02-13T17:14:55.084Z,51.97
2023-02-13T17:17:58.092Z,52.02
2023-02-13T17:21:01.699Z,52.06
2023-02-13T17:24:04.316Z,51.99
2023-02-13T17:27:07.001Z,52.14
2023-02-13T17:30:15.808Z,52.22
2023-02-13T17:33:22.603Z,52.22
2023-02-13T17:36:25.238Z,52.36
2023-02-13T17:39:27.863Z,52.41
2023-02-13T17:42:30.778Z,52.43
2023-02-13T17:45:35.070Z,52.43
2023-02-13T17:48:37.102Z,52.51
2023-02-13T17:51:40.126Z,52.51
2023-02-13T17:54:42.489Z,52.56
2023-02-13T17:57:45.084Z,52.59
2023-02-13T18:00:47.703Z,52.66
2023-02-13T18:03:50.275Z,52.76
2023-02-13T18:06:53.683Z,52.85
2023-02-13T18:09:56.588Z,52.94
2023-02-13T18:13:04.249Z,52.97
2023-02-13T18:16:10.938Z,52.99
2023-02-13T18:19:14.673Z,53.00
2023-02-13T18:22:17.617Z,53.12
2023-02-13T18:25:21.043Z,53.21
2023-02-13T18:28:24.074Z,53.19
2023-02-13T18:31:26.459Z,53.25
2023-02-13T18:34:29.390Z,53.31
2023-02-13T18:37:34.324Z,53.34
2023-02-13T18:40:37.595Z,53.37
2023-02-13T18:43:40.131Z,53.31
2023-02-13T18:46:42.760Z,53.40
2023-02-13T18:49:48.834Z,53.39
2023-02-13T18:52:51.250Z,53.35
2023-02-13T18:56:08.245Z,53.43
2023-02-13T18:59:11.142Z,53.43
2023-02-13T19:02:13.824Z,53.33
2023-02-13T19:05:16.484Z,53.38
2023-02-13T19:08:19.262Z,53.34
2023-02-13T19:11:26.669Z,53.24
2023-02-13T19:14:29.435Z,53.31
2023-02-13T19:17:32.100Z,53.25
2023-02-13T19:20:34.302Z,53.20
2023-02-13T19:23:37.116Z,53.15
2023-02-13T19:26:39.511Z,53.14
2023-02-13T19:29:42.077Z,53.06
2023-02-13T19:32:46.417Z,53.16
2023-02-13T19:36:00.718Z,53.29
2023-02-13T19:39:06.528Z,53.21
2023-02-13T19:42:09.600Z,53.44
2023-02-13T19:45:11.972Z,53.50
2023-02-13T19:48:14.749Z,53.69
2023-02-13T19:51:19.895Z,53.79
2023-02-13T19:54:22.769Z,54.61
2023-02-13T19:57:25.294Z,54.83
2023-02-13T20:00:28.282Z,54.66
2023-02-13T20:03:30.725Z,54.80
2023-02-13T20:06:36.288Z,54.70
2023-02-13T20:09:40.072Z,54.56
2023-02-13T20:12:42.430Z,54.50
2023-02-13T20:15:44.580Z,54.56
2023-02-13T20:18:47.013Z,54.46
2023-02-13T20:21:49.205Z,54.47
2023-02-13T20:24:51.784Z,54.51
2023-02-13T20:27:53.927Z,54.45
2023-02-13T20:30:56.832Z,54.21
2023-02-13T20:33:59.465Z,54.18
2023-02-13T20:37:01.754Z,54.00
2023-02-13T20:40:04.088Z,53.85
2023-02-13T20:43:06.793Z,53.64
2023-02-13T20:46:10.260Z,53.66
2023-02-13T20:49:18.988Z,53.48
2023-02-13T20:52:21.362Z,53.42
2023-02-13T20:55:24.144Z,53.34
2023-02-13T20:58:26.244Z,53.34
2023-02-13T21:01:33.989Z,53.32
2023-02-13T21:04:36.308Z,53.32
2023-02-13T21:07:38.928Z,53.35
2023-02-13T21:10:41.371Z,53.34
2023-02-13T21:13:44.723Z,53.30
2023-02-13T21:16:47.155Z,53.36
2023-02-13T21:19:49.904Z,53.37
2023-02-13T21:22:52.006Z,53.41
2023-02-13T21:25:54.703Z,53.48
2023-02-13T21:28:58.093Z,53.46
2023-02-13T21:32:00.793Z,53.42
2023-02-13T21:35:03.035Z,53.41
2023-02-13T21:38:05.992Z,53.61
2023-02-13T21:41:13.893Z,53.94
2023-02-13T21:44:17.365Z,53.85
2023-02-13T21:47:19.446Z,53.73
2023-02-13T21:50:22.475Z,53.58
2023-02-13T21:53:24.996Z,53.56
2023-02-13T21:56:30.436Z,53.50
2023-02-13T21:59:32.615Z,53.61
2023-02-13T22:02:35.228Z,53.47
2023-02-13T22:05:37.322Z,53.43
2023-02-13T22:08:40.147Z,53.36
2023-02-13T22:11:43.519Z,53.26
2023-02-13T22:14:46.189Z,53.24
2023-02-13T22:17:48.396Z,53.24
2023-02-13T22:20:51.638Z,53.21
2023-02-13T22:23:53.924Z,53.07
2023-02-13T22:26:56.969Z,53.06
2023-02-13T22:29:59.687Z,53.01
2023-02-13T22:33:02.372Z,53.14
2023-02-13T22:36:05.588Z,53.12
2023-02-13T22:39:10.252Z,53.04
2023-02-13T22:42:13.334Z,53.02
2023-02-13T22:45:15.914Z,52.93
2023-02-13T22:48:17.826Z,52.93
2023-02-13T22:51:23.835Z,52.91
2023-02-13T22:54:26.094Z,52.79
2023-02-13T22:57:29.335Z,52.73
2023-02-13T23:00:31.437Z,52.71
2023-02-13T23:03:33.985Z,52.68
2023-02-13T23:06:36.109Z,52.69
2023-02-13T23:09:38.523Z,52.70
2023-02-13T23:12:41.204Z,52.63
2023-02-13T23:15:43.802Z,52.53
2023-02-13T23:18:51.303Z,52.57
2023-02-13T23:21:53.848Z,52.52
2023-02-13T23:24:55.993Z,52.57
2023-02-13T23:27:58.419Z,52.38
2023-02-13T23:31:01.945Z,52.39
2023-02-13T23:34:04.759Z,52.36
2023-02-13T23:37:07.059Z,52.37
2023-02-13T23:40:13.958Z,52.40
2023-02-13T23:43:16.059Z,52.50
2023-02-13T23:46:18.966Z,52.50
2023-02-13T23:49:22.302Z,52.27
2023-02-13T23:52:24.653Z,52.15
2023-02-13T23:55:26.948Z,52.17
2023-02-13T23:58:29.575Z,52.18
